Time;durP1;ratioP1;P1;durP2;ratioP2;P2;SDS_P1;SDS_P2;PMS_P1;PMS_P2;Temp;Humidity;BMP_temperature;BMP_pressure;BME280_temperature;BME280_humidity;BME280_pressure;Samples;Min_cycle;Max_cycle;Signal;HPM_P1;HPM_P2
2023/10/07 00:01:11;;;;;;;54.50;39.65;;;24.60;99.90;;;;;;5048168;28;20049;-64
2023/10/07 00:03:38;;;;;;;47.50;37.53;;;24.30;99.90;;;;;;5049853;28;20052;-64
2023/10/07 00:06:10;;;;;;;50.38;38.50;;;24.40;99.90;;;;;;5066366;28;20049;-64
2023/10/07 00:08:35;;;;;;;55.35;37.95;;;24.10;99.90;;;;;;5061439;28;20045;-64
2023/10/07 00:11:02;;;;;;;48.83;37.72;;;24.00;99.90;;;;;;5067901;28;20510;-64
2023/10/07 00:13:31;;;;;;;55.42;39.42;;;24.80;99.90;;;;;;5068296;28;20133;-65
2023/10/07 00:15:58;;;;;;;51.63;38.47;;;24.20;99.90;;;;;;5061764;28;20041;-65
2023/10/07 00:18:24;;;;;;;48.22;37.13;;;24.20;99.90;;;;;;5055857;28;20453;-64
2023/10/07 00:20:53;;;;;;;49.78;41.13;;;25.40;99.90;;;;;;5067257;28;20446;-64
2023/10/07 00:23:21;;;;;;;50.70;38.13;;;25.00;99.90;;;;;;5057804;28;20037;-64
2023/10/07 00:25:51;;;;;;;52.13;38.53;;;24.60;99.90;;;;;;5047837;28;20037;-64
2023/10/07 00:28:18;;;;;;;55.35;37.72;;;24.10;99.90;;;;;;5055048;28;20045;-64
2023/10/07 00:30:49;;;;;;;47.70;37.55;;;25.00;99.90;;;;;;5067793;28;20083;-64
2023/10/07 00:33:15;;;;;;;48.58;37.90;;;24.40;99.90;;;;;;5059211;28;20056;-64
2023/10/07 00:35:42;;;;;;;51.95;37.00;;;25.10;99.90;;;;;;5047965;28;20387;-64
2023/10/07 00:38:14;;;;;;;55.03;36.67;;;24.00;99.90;;;;;;5047648;28;20041;-65
2023/10/07 00:40:52;;;;;;;49.67;36.97;;;23.90;99.90;;;;;;5047551;28;20041;-64
2023/10/07 00:43:26;;;;;;;53.10;37.28;;;25.20;99.90;;;;;;5053321;28;20490;-65
2023/10/07 00:46:11;;;;;;;50.17;36.90;;;24.50;99.90;;;;;;5066457;28;20052;-64
2023/10/07 00:48:46;;;;;;;50.72;37.85;;;24.40;99.90;;;;;;5067896;28;20048;-64
2023/10/07 00:51:12;;;;;;;48.85;35.95;;;24.60;99.90;;;;;;5066735;28;20500;-64
2023/10/07 00:53:45;;;;;;;56.40;38.08;;;24.20;99.90;;;;;;5056880;28;20068;-64
2023/10/07 00:56:15;;;;;;;51.78;37.20;;;24.40;99.90;;;;;;5046059;28;20053;-64
2023/10/07 00:58:42;;;;;;;49.35;39.80;;;24.20;99.90;;;;;;5045832;28;20410;-63
2023/10/07 01:01:12;;;;;;;54.47;39.13;;;24.80;99.90;;;;;;5047309;28;20255;-64
2023/10/07 01:03:55;;;;;;;50.60;39.08;;;24.90;99.90;;;;;;5055724;28;20558;-65
2023/10/07 01:06:31;;;;;;;46.72;36.63;;;24.00;99.90;;;;;;5050163;28;20068;-64
2023/10/07 01:09:07;;;;;;;51.93;40.17;;;24.90;99.90;;;;;;5047675;28;20056;-65
2023/10/07 01:11:40;;;;;;;52.33;38.17;;;24.80;99.90;;;;;;5057975;28;20371;-64
2023/10/07 01:14:06;;;;;;;52.15;39.08;;;24.80;99.90;;;;;;5054611;28;20108;-63
2023/10/07 01:16:45;;;;;;;50.88;38.60;;;24.40;99.90;;;;;;5067278;28;20040;-64
2023/10/07 01:21:53;;;;;;;47.22;38.60;;;24.70;99.90;;;;;;5067561;28;20075;-67
2023/10/07 01:24:44;;;;;;;56.33;39.70;;;25.00;99.90;;;;;;5047659;28;20037;-66
2023/10/07 01:32:48;;;;;;;55.90;39.05;;;24.50;99.90;;;;;;5060851;28;20615;-66
2023/10/07 01:35:13;;;;;;;54.22;39.15;;;24.50;99.90;;;;;;5046587;28;20057;-67
2023/10/07 01:37:55;;;;;;;54.55;38.47;;;24.10;99.90;;;;;;5047194;28;20052;-66
2023/10/07 01:40:27;;;;;;;49.58;38.13;;;24.90;99.90;;;;;;5063700;28;20059;-66
2023/10/07 01:42:53;;;;;;;54.95;38.10;;;24.60;99.90;;;;;;5066831;28;20430;-66
2023/10/07 01:45:22;;;;;;;52.00;38.40;;;25.50;99.90;;;;;;5065882;28;20127;-66
2023/10/07 01:47:49;;;;;;;50.95;37.63;;;24.90;99.90;;;;;;5066755;28;20514;-66
2023/10/07 01:50:18;;;;;;;56.92;39.25;;;24.20;99.90;;;;;;5049258;28;20064;-66
2023/10/07 01:52:48;;;;;;;53.13;38.03;;;24.60;99.90;;;;;;5047058;28;20037;-66
2023/10/07 01:55:15;;;;;;;51.15;39.25;;;24.80;99.90;;;;;;5049809;28;20458;-66
2023/10/07 01:57:44;;;;;;;50.38;38.28;;;24.50;99.90;;;;;;5050673;28;20041;-66
2023/10/07 02:00:11;;;;;;;51.50;37.88;;;24.10;99.90;;;;;;5065877;28;20041;-66
2023/10/07 02:02:48;;;;;;;50.92;38.30;;;25.10;99.90;;;;;;5070817;28;20048;-66
2023/10/07 02:05:15;;;;;;;49.17;38.10;;;25.00;99.90;;;;;;5070556;28;20469;-66
2023/10/07 02:07:43;;;;;;;47.97;38.55;;;24.20;99.90;;;;;;5055188;28;20040;-66
2023/10/07 02:10:12;;;;;;;46.75;37.72;;;24.10;99.90;;;;;;5063755;28;20068;-66
2023/10/07 02:12:39;;;;;;;51.45;38.60;;;24.20;99.90;;;;;;5070910;28;20053;-66
2023/10/07 02:15:11;;;;;;;53.17;38.45;;;24.10;99.90;;;;;;5070393;28;20128;-66
2023/10/07 02:17:36;;;;;;;51.20;39.13;;;25.00;99.90;;;;;;5070402;28;20098;-66
2023/10/07 02:20:22;;;;;;;52.03;37.13;;;24.40;99.90;;;;;;5057235;28;20049;-67
2023/10/07 02:22:48;;;;;;;55.13;40.15;;;24.30;99.90;;;;;;5050515;28;20052;-66
2023/10/07 02:25:26;;;;;;;52.05;37.60;;;24.00;99.90;;;;;;5050952;28;20064;-66
2023/10/07 02:27:52;;;;;;;53.67;39.47;;;24.00;99.90;;;;;;5054116;28;20060;-66
2023/10/07 02:30:20;;;;;;;54.70;38.65;;;24.30;99.90;;;;;;5055614;28;20407;-66
2023/10/07 02:32:46;;;;;;;49.45;38.67;;;24.80;99.90;;;;;;5050042;28;20045;-66
2023/10/07 02:35:20;;;;;;;50.60;38.15;;;24.20;99.90;;;;;;5062123;28;20067;-66
2023/10/07 02:37:51;;;;;;;57.28;38.80;;;24.00;99.90;;;;;;5069890;28;20051;-66
2023/10/07 02:40:35;;;;;;;51.47;36.40;;;25.00;99.90;;;;;;5055040;28;20294;-66
2023/10/07 02:43:07;;;;;;;50.35;38.58;;;24.00;99.90;;;;;;5049973;28;20410;-66
2023/10/07 02:45:39;;;;;;;49.35;40.30;;;24.00;99.90;;;;;;5048484;28;20450;-66
2023/10/07 02:48:10;;;;;;;54.15;39.60;;;24.00;99.90;;;;;;5050121;28;20040;-66
2023/10/07 02:50:39;;;;;;;52.35;39.20;;;23.90;99.90;;;;;;5065200;28;20162;-66
2023/10/07 02:53:11;;;;;;;49.35;38.85;;;24.20;99.90;;;;;;5067077;28;20091;-66
2023/10/07 02:55:47;;;;;;;52.88;38.20;;;24.80;99.90;;;;;;5050058;28;20048;-66
2023/10/07 02:58:36;;;;;;;51.85;38.25;;;24.00;99.90;;;;;;5049921;28;20461;-66
2023/10/07 03:01:13;;;;;;;53.08;36.67;;;24.00;99.90;;;;;;5067782;28;20487;-66
2023/10/07 03:03:40;;;;;;;50.25;37.38;;;25.50;99.90;;;;;;5069601;28;20421;-66
2023/10/07 03:06:07;;;;;;;52.85;37.45;;;24.00;99.90;;;;;;5067203;28;20120;-66
2023/10/07 03:08:40;;;;;;;45.08;36.33;;;24.00;99.90;;;;;;5068657;28;20050;-66
2023/10/07 03:11:21;;;;;;;50.00;36.83;;;24.10;99.90;;;;;;5050554;28;20177;-66
2023/10/07 03:13:47;;;;;;;51.38;36.13;;;24.50;99.90;;;;;;5049668;28;20127;-66
2023/10/07 03:18:55;;;;;;;49.35;38.50;;;24.00;99.90;;;;;;5066104;28;20056;-66
2023/10/07 03:21:22;;;;;;;53.45;36.47;;;24.30;99.90;;;;;;5049033;28;20044;-66
2023/10/07 03:23:48;;;;;;;49.92;37.33;;;24.50;99.90;;;;;;5049164;28;20028;-66
2023/10/07 03:26:21;;;;;;;50.30;36.65;;;23.90;99.90;;;;;;5049033;28;20051;-66
2023/10/07 03:28:53;;;;;;;50.33;38.00;;;24.10;99.90;;;;;;5060440;28;20054;-66
2023/10/07 03:31:21;;;;;;;50.75;37.15;;;24.00;99.90;;;;;;5047985;28;20084;-66
2023/10/07 03:33:58;;;;;;;49.95;38.10;;;24.70;99.90;;;;;;5048809;28;20051;-66
2023/10/07 03:39:16;;;;;;;50.50;37.22;;;25.30;99.90;;;;;;5052028;28;20151;-66
2023/10/07 03:41:47;;;;;;;50.00;37.08;;;24.60;99.90;;;;;;5048848;28;20041;-64
2023/10/07 03:44:17;;;;;;;45.10;36.70;;;25.10;99.90;;;;;;5047840;28;20398;-64
2023/10/07 03:46:46;;;;;;;48.45;36.97;;;25.00;99.90;;;;;;5067142;28;20288;-64
2023/10/07 03:49:11;;;;;;;54.95;36.55;;;25.00;99.90;;;;;;5068751;28;20431;-64
2023/10/07 03:51:37;;;;;;;44.83;36.50;;;24.90;99.90;;;;;;5068283;28;20072;-64
2023/10/07 03:54:15;;;;;;;48.78;36.70;;;24.40;99.90;;;;;;5067633;28;20551;-64
2023/10/07 03:56:49;;;;;;;48.50;35.65;;;24.40;99.90;;;;;;5064407;28;20051;-64
2023/10/07 03:59:15;;;;;;;56.88;36.05;;;25.00;99.90;;;;;;5067023;28;20043;-64
2023/10/07 04:01:42;;;;;;;52.35;36.90;;;24.40;99.90;;;;;;5068701;28;20041;-64
2023/10/07 04:04:11;;;;;;;46.08;37.55;;;24.20;99.90;;;;;;5068721;28;20563;-64
2023/10/07 04:06:38;;;;;;;48.90;36.70;;;23.90;99.90;;;;;;5050192;28;20045;-64
2023/10/07 04:09:07;;;;;;;43.00;35.17;;;24.50;99.90;;;;;;5049341;28;20048;-64
2023/10/07 04:11:34;;;;;;;44.53;36.10;;;24.40;99.90;;;;;;5054535;28;20090;-64
2023/10/07 04:14:06;;;;;;;46.55;39.00;;;25.00;99.90;;;;;;5053504;28;20041;-64
2023/10/07 04:16:33;;;;;;;43.70;38.75;;;24.90;99.90;;;;;;5063486;28;20043;-65
2023/10/07 04:21:44;;;;;;;53.50;36.22;;;24.40;99.90;;;;;;5057561;28;20512;-65
2023/10/07 04:24:11;;;;;;;49.75;35.88;;;24.70;99.90;;;;;;5048072;28;20048;-64
2023/10/07 04:26:51;;;;;;;55.28;36.80;;;23.70;99.90;;;;;;5048843;28;20055;-64
2023/10/07 04:29:17;;;;;;;50.85;37.25;;;24.80;99.90;;;;;;5064099;28;20044;-64
2023/10/07 04:31:47;;;;;;;50.88;37.05;;;23.90;99.90;;;;;;5058532;28;20044;-64
2023/10/07 04:34:15;;;;;;;49.00;35.80;;;23.70;99.90;;;;;;5048403;28;20086;-64
2023/10/07 04:39:29;;;;;;;46.58;35.40;;;23.90;99.90;;;;;;5051215;28;20071;-64
2023/10/07 04:42:00;;;;;;;46.40;35.78;;;25.30;99.90;;;;;;5061479;28;20567;-63
2023/10/07 04:50:06;;;;;;;51.70;36.17;;;24.90;99.90;;;;;;5067086;28;20051;-65
2023/10/07 04:52:33;;;;;;;45.13;35.58;;;25.00;99.90;;;;;;5052781;28;20479;-66
2023/10/07 04:55:00;;;;;;;44.63;35.58;;;23.80;99.90;;;;;;5048012;28;20077;-66
2023/10/07 04:57:49;;;;;;;46.40;34.30;;;25.00;99.90;;;;;;5047557;28;20044;-66
2023/10/07 05:03:08;;;;;;;43.60;34.50;;;23.90;99.90;;;;;;5062899;28;20423;-66
2023/10/07 05:05:34;;;;;;;43.38;35.50;;;23.70;99.90;;;;;;5067737;28;20369;-66
2023/10/07 05:08:19;;;;;;;44.42;35.63;;;25.40;99.90;;;;;;5067308;28;20087;-66
2023/10/07 05:10:55;;;;;;;51.40;35.00;;;24.80;99.90;;;;;;5057286;28;20491;-66
2023/10/07 05:13:21;;;;;;;46.20;35.15;;;23.70;99.90;;;;;;5063462;28;20036;-66
2023/10/07 05:15:47;;;;;;;44.90;34.78;;;23.80;99.90;;;;;;5067251;28;20098;-66
2023/10/07 05:18:15;;;;;;;44.10;35.60;;;24.20;99.90;;;;;;5067135;28;20528;-67
2023/10/07 05:20:42;;;;;;;44.35;35.00;;;23.80;99.90;;;;;;5065780;28;20053;-66
2023/10/07 05:23:13;;;;;;;51.83;35.08;;;25.00;99.90;;;;;;5049060;28;20060;-66
2023/10/07 05:25:48;;;;;;;51.00;36.03;;;24.90;99.90;;;;;;5057785;28;20097;-66
2023/10/07 05:28:17;;;;;;;50.63;36.22;;;25.10;99.90;;;;;;5066572;28;20045;-67
2023/10/07 05:30:54;;;;;;;47.50;36.20;;;24.50;99.90;;;;;;5056512;28;20045;-66
2023/10/07 05:33:28;;;;;;;54.00;36.05;;;24.10;99.90;;;;;;5068255;28;20044;-66
2023/10/07 05:36:11;;;;;;;52.15;37.00;;;24.00;99.90;;;;;;5069866;28;20032;-66
2023/10/07 05:38:38;;;;;;;51.90;37.47;;;24.80;99.90;;;;;;5071491;28;20056;-66
2023/10/07 05:41:06;;;;;;;50.22;37.08;;;23.90;99.90;;;;;;5059154;28;20087;-66
2023/10/07 05:43:32;;;;;;;41.97;36.88;;;24.70;99.90;;;;;;5049855;28;20044;-66
2023/10/07 05:45:58;;;;;;;46.55;36.35;;;24.50;99.90;;;;;;5064359;28;20091;-66
2023/10/07 05:48:25;;;;;;;51.05;36.40;;;24.50;99.90;;;;;;5059750;28;20462;-66
2023/10/07 05:50:54;;;;;;;49.30;35.55;;;24.70;99.90;;;;;;5054352;28;20052;-66
2023/10/07 05:53:20;;;;;;;46.75;38.17;;;24.10;99.90;;;;;;5063925;28;20052;-66
2023/10/07 05:55:47;;;;;;;46.75;36.22;;;24.80;99.90;;;;;;5068859;28;20087;-66
2023/10/07 05:58:13;;;;;;;50.15;36.75;;;24.80;99.90;;;;;;5061210;28;20048;-65
2023/10/07 06:00:40;;;;;;;54.97;36.97;;;24.30;99.90;;;;;;5059169;28;20037;-66
2023/10/07 06:03:12;;;;;;;44.67;35.50;;;24.10;99.90;;;;;;5056127;28;20629;-64
2023/10/07 06:05:38;;;;;;;50.13;36.08;;;24.00;99.90;;;;;;5054049;28;20113;-64
2023/10/07 06:08:08;;;;;;;52.25;36.80;;;23.90;99.90;;;;;;5057693;28;20036;-64
2023/10/07 06:10:33;;;;;;;51.50;36.67;;;23.70;99.90;;;;;;5061930;28;20709;-64
2023/10/07 06:13:08;;;;;;;52.67;37.05;;;24.90;99.90;;;;;;5054954;28;20040;-63
2023/10/07 06:15:37;;;;;;;49.10;36.17;;;23.60;99.90;;;;;;5052703;28;20077;-64
2023/10/07 06:18:06;;;;;;;46.65;35.95;;;24.10;99.90;;;;;;5054450;28;20048;-64
2023/10/07 06:20:38;;;;;;;43.83;36.05;;;24.00;99.90;;;;;;5055189;28;20051;-64
2023/10/07 06:23:14;;;;;;;50.65;36.72;;;24.80;99.90;;;;;;5059796;28;20425;-63
2023/10/07 06:25:42;;;;;;;48.30;35.83;;;24.60;99.90;;;;;;5062579;28;20051;-64
2023/10/07 06:28:10;;;;;;;51.42;35.83;;;24.60;99.90;;;;;;5056790;28;20040;-65
2023/10/07 06:30:38;;;;;;;47.53;36.05;;;24.40;99.90;;;;;;5056508;28;20518;-64
2023/10/07 06:33:04;;;;;;;49.88;35.58;;;23.90;99.90;;;;;;5054689;28;20036;-64
2023/10/07 06:35:32;;;;;;;49.58;36.50;;;24.80;99.90;;;;;;5035787;28;20041;-64
2023/10/07 06:37:58;;;;;;;44.80;35.85;;;24.70;99.90;;;;;;5055487;28;20049;-65
2023/10/07 06:40:26;;;;;;;54.03;36.60;;;25.00;99.90;;;;;;5056708;28;20513;-64
2023/10/07 06:42:55;;;;;;;52.78;36.50;;;23.70;99.90;;;;;;5062702;28;20044;-64
2023/10/07 06:45:36;;;;;;;47.65;35.47;;;24.90;99.90;;;;;;5054816;28;20410;-64
2023/10/07 06:48:06;;;;;;;51.13;36.15;;;25.00;99.90;;;;;;5066820;28;20068;-64
2023/10/07 06:50:33;;;;;;;47.25;35.92;;;25.00;99.90;;;;;;5052291;28;20057;-64
2023/10/07 06:52:58;;;;;;;43.00;34.70;;;25.00;99.90;;;;;;5052372;28;20598;-64
2023/10/07 06:55:24;;;;;;;48.35;36.35;;;25.00;99.90;;;;;;5050436;28;20044;-64
2023/10/07 06:57:56;;;;;;;51.13;36.78;;;23.80;99.90;;;;;;5062103;28;20776;-64
2023/10/07 07:00:24;;;;;;;48.47;36.00;;;23.90;99.90;;;;;;5050824;28;20048;-64
2023/10/07 07:02:54;;;;;;;44.85;35.75;;;24.10;99.90;;;;;;5063442;28;20135;-64
2023/10/07 07:05:23;;;;;;;48.08;35.88;;;24.30;99.90;;;;;;5060844;28;20086;-64
2023/10/07 07:07:52;;;;;;;50.97;35.55;;;24.40;99.90;;;;;;5061157;28;20103;-64
2023/10/07 07:10:27;;;;;;;42.65;34.92;;;24.20;99.90;;;;;;5049925;28;20096;-63
2023/10/07 07:13:02;;;;;;;43.47;37.00;;;24.00;99.90;;;;;;5061624;28;20064;-67
2023/10/07 07:15:36;;;;;;;48.65;38.17;;;23.90;99.90;;;;;;5065034;28;20067;-67
2023/10/07 07:20:49;;;;;;;47.33;36.20;;;23.90;99.90;;;;;;5064311;28;20052;-66
2023/10/07 07:23:22;;;;;;;47.85;35.80;;;25.00;99.90;;;;;;5063648;28;20041;-68
2023/10/07 07:26:03;;;;;;;50.22;36.30;;;25.00;99.90;;;;;;5065968;28;20076;-68
2023/10/07 07:28:32;;;;;;;49.80;35.88;;;25.10;99.90;;;;;;5066451;28;20076;-67
2023/10/07 07:30:59;;;;;;;53.00;36.47;;;24.30;99.90;;;;;;5064487;28;20153;-67
2023/10/07 07:33:28;;;;;;;47.17;35.95;;;25.10;99.90;;;;;;5051691;28;20032;-67
2023/10/07 07:35:56;;;;;;;52.55;36.67;;;24.10;99.90;;;;;;5048991;28;20078;-68
2023/10/07 07:40:52;;;;;;;48.80;36.05;;;24.70;99.90;;;;;;5056718;28;20052;-69
2023/10/07 07:43:25;;;;;;;46.40;35.55;;;24.90;99.90;;;;;;5051870;28;20430;-70
2023/10/07 07:46:05;;;;;;;45.65;34.28;;;24.20;99.90;;;;;;5057793;28;20049;-68
2023/10/07 07:48:36;;;;;;;49.10;35.45;;;24.60;99.90;;;;;;5055528;28;20433;-68
2023/10/07 07:51:03;;;;;;;47.10;34.88;;;24.10;99.90;;;;;;5048171;28;20115;-68
2023/10/07 07:53:30;;;;;;;47.17;35.30;;;24.60;99.90;;;;;;5060121;28;20076;-67
2023/10/07 07:55:58;;;;;;;48.85;34.67;;;25.00;99.90;;;;;;5054626;28;20040;-66
2023/10/07 07:58:25;;;;;;;46.10;34.30;;;25.60;99.90;;;;;;5055677;28;20051;-68
2023/10/07 08:00:58;;;;;;;44.38;33.60;;;24.20;99.90;;;;;;5058284;28;20507;-65
2023/10/07 08:03:27;;;;;;;47.80;34.72;;;24.90;99.90;;;;;;5055605;28;20068;-69
2023/10/07 08:05:55;;;;;;;42.78;34.97;;;24.70;99.90;;;;;;5052480;28;20148;-69
2023/10/07 08:08:24;;;;;;;55.15;35.92;;;24.40;99.90;;;;;;5056111;28;20116;-68
2023/10/07 08:10:54;;;;;;;45.65;35.13;;;24.40;99.90;;;;;;5049879;28;20099;-69
2023/10/07 08:13:27;;;;;;;49.58;35.47;;;24.80;99.90;;;;;;5062236;28;20067;-68
2023/10/07 08:15:56;;;;;;;46.92;33.47;;;24.80;99.90;;;;;;5051541;28;20036;-68
2023/10/07 08:18:28;;;;;;;41.55;33.85;;;24.30;99.90;;;;;;5052706;28;20037;-69
2023/10/07 08:21:06;;;;;;;47.95;34.03;;;24.90;99.90;;;;;;5059331;28;20119;-68
2023/10/07 08:23:37;;;;;;;42.58;32.28;;;25.10;99.90;;;;;;5063745;28;20094;-63
2023/10/07 08:26:13;;;;;;;39.17;31.48;;;25.10;99.90;;;;;;5051123;28;20055;-63
2023/10/07 08:28:45;;;;;;;42.42;32.85;;;24.80;99.90;;;;;;5060050;28;20098;-62
2023/10/07 08:31:19;;;;;;;41.75;32.88;;;24.70;99.90;;;;;;5068203;28;20067;-63
2023/10/07 08:34:09;;;;;;;44.80;31.80;;;24.90;99.90;;;;;;5048535;28;20037;-62
2023/10/07 08:36:43;;;;;;;46.42;30.88;;;24.50;99.90;;;;;;5064588;28;20776;-62
2023/10/07 08:39:09;;;;;;;45.78;32.28;;;25.10;99.90;;;;;;5062276;28;20048;-62
2023/10/07 08:41:40;;;;;;;39.75;30.77;;;24.60;99.90;;;;;;5067016;28;20075;-64
2023/10/07 08:44:14;;;;;;;36.70;29.77;;;24.60;99.90;;;;;;5061517;28;20203;-62
2023/10/07 08:46:52;;;;;;;42.42;31.48;;;24.60;99.90;;;;;;5068236;28;20114;-64
2023/10/07 08:49:26;;;;;;;41.55;32.85;;;24.80;99.90;;;;;;5049345;28;20152;-64
2023/10/07 08:51:56;;;;;;;43.63;33.55;;;25.00;99.90;;;;;;5067430;28;20577;-63
2023/10/07 08:54:26;;;;;;;42.13;30.70;;;24.90;99.90;;;;;;5052943;28;20730;-61
2023/10/07 08:56:57;;;;;;;40.70;31.38;;;24.60;99.90;;;;;;5052213;28;20529;-62
2023/10/07 08:59:30;;;;;;;40.63;31.45;;;24.50;99.90;;;;;;5056666;28;20041;-63
2023/10/07 09:02:12;;;;;;;49.28;31.85;;;25.00;99.90;;;;;;5052925;28;20067;-63
2023/10/07 09:04:40;;;;;;;40.20;30.83;;;24.70;99.90;;;;;;5059007;28;20093;-62
2023/10/07 09:07:11;;;;;;;40.20;31.00;;;25.20;99.90;;;;;;5060755;28;20127;-64
2023/10/07 09:09:43;;;;;;;41.20;31.92;;;25.30;99.90;;;;;;5059083;28;20414;-64
2023/10/07 09:12:28;;;;;;;41.63;31.98;;;25.30;99.90;;;;;;5057135;28;20072;-66
2023/10/07 09:14:57;;;;;;;43.20;31.65;;;25.30;99.90;;;;;;5049134;28;20098;-65
2023/10/07 09:17:29;;;;;;;40.58;30.40;;;24.90;99.90;;;;;;5048344;28;20071;-65
2023/10/07 09:20:01;;;;;;;42.13;30.63;;;25.40;99.90;;;;;;5054644;28;20053;-64
2023/10/07 09:22:35;;;;;;;37.63;29.65;;;24.90;99.90;;;;;;5061298;28;20037;-63
2023/10/07 09:25:29;;;;;;;38.88;30.92;;;25.10;99.90;;;;;;5047300;28;20738;-64
2023/10/07 09:27:57;;;;;;;39.25;30.55;;;25.20;99.90;;;;;;5051405;28;20052;-64
2023/10/07 09:33:18;;;;;;;41.60;31.10;;;25.40;99.90;;;;;;5064681;28;20056;-64
2023/10/07 09:38:35;;;;;;;40.55;29.95;;;25.10;99.90;;;;;;5062746;28;20048;-63
2023/10/07 09:41:23;;;;;;;37.97;29.75;;;24.90;99.90;;;;;;5067607;28;20072;-64
2023/10/07 09:43:56;;;;;;;43.95;30.73;;;25.20;99.90;;;;;;5050731;28;20052;-63
2023/10/07 09:46:25;;;;;;;38.83;30.40;;;25.20;99.90;;;;;;5048432;28;20043;-64
2023/10/07 09:48:52;;;;;;;38.60;30.80;;;24.90;99.90;;;;;;5065663;28;20053;-63
2023/10/07 09:52:04;;;;;;;38.25;31.25;;;25.00;99.90;;;;;;5058421;28;20052;-64
2023/10/07 09:54:22;;;;;;;39.63;31.10;;;25.00;99.90;;;;;;5052657;28;20106;-64
2023/10/07 09:57:07;;;;;;;41.15;30.02;;;25.10;99.90;;;;;;5047207;28;20044;-64
2023/10/07 09:59:51;;;;;;;42.10;30.38;;;25.30;99.90;;;;;;5058192;28;20086;-65
2023/10/07 10:02:25;;;;;;;38.65;29.77;;;25.10;99.90;;;;;;5050280;28;20044;-65
2023/10/07 10:05:11;;;;;;;39.40;29.15;;;25.30;99.90;;;;;;5062050;28;20075;-65
2023/10/07 10:08:19;;;;;;;40.17;29.33;;;25.00;99.90;;;;;;5058351;28;20536;-65
2023/10/07 10:10:49;;;;;;;45.03;29.20;;;25.00;99.90;;;;;;5055385;28;20036;-65
2023/10/07 10:13:29;;;;;;;73.05;31.30;;;25.30;99.90;;;;;;5054189;28;20041;-66
2023/10/07 10:16:00;;;;;;;43.42;28.98;;;25.20;99.90;;;;;;5056176;28;20494;-67
2023/10/07 10:18:38;;;;;;;40.03;29.27;;;25.50;99.90;;;;;;5053979;28;20134;-65
2023/10/07 10:21:05;;;;;;;34.83;28.88;;;25.00;99.90;;;;;;5061829;28;20040;-66
2023/10/07 10:23:35;;;;;;;35.67;29.88;;;25.30;99.90;;;;;;5055044;28;20041;-65
2023/10/07 10:26:14;;;;;;;44.35;29.63;;;25.30;99.90;;;;;;5056906;28;20143;-66
2023/10/07 10:28:41;;;;;;;42.83;29.33;;;25.50;99.90;;;;;;5063283;28;20083;-64
2023/10/07 10:31:20;;;;;;;42.00;29.23;;;25.10;99.90;;;;;;5051141;28;20244;-66
2023/10/07 10:33:49;;;;;;;37.17;28.95;;;25.20;99.90;;;;;;5055275;28;20527;-66
2023/10/07 10:36:18;;;;;;;39.17;28.33;;;25.20;99.90;;;;;;5057118;28;20076;-65
2023/10/07 10:38:45;;;;;;;36.53;28.42;;;25.60;99.90;;;;;;5058790;28;20519;-65
2023/10/07 10:41:11;;;;;;;37.38;28.45;;;25.40;99.90;;;;;;5050467;28;20097;-67
2023/10/07 10:43:39;;;;;;;38.97;28.30;;;25.30;99.90;;;;;;5053058;28;20041;-65
2023/10/07 10:46:07;;;;;;;39.10;28.58;;;25.60;99.90;;;;;;5051334;28;20047;-64
2023/10/07 10:48:38;;;;;;;37.28;28.35;;;25.60;99.90;;;;;;5057230;28;20071;-64
2023/10/07 10:51:05;;;;;;;36.53;27.65;;;25.40;99.90;;;;;;5049991;28;20068;-64
2023/10/07 10:53:40;;;;;;;33.75;26.40;;;25.50;99.90;;;;;;5053060;28;20041;-66
2023/10/07 10:56:07;;;;;;;36.80;28.60;;;25.20;99.90;;;;;;5056209;28;20040;-65
2023/10/07 10:58:36;;;;;;;36.85;27.83;;;25.50;99.90;;;;;;5050102;28;20044;-64
2023/10/07 11:01:05;;;;;;;36.72;29.48;;;25.50;99.90;;;;;;5051987;28;20048;-64
2023/10/07 11:03:31;;;;;;;34.90;26.92;;;25.40;99.90;;;;;;5061304;28;20040;-65
2023/10/07 11:05:57;;;;;;;37.40;26.40;;;25.80;99.90;;;;;;5064250;28;20044;-63
2023/10/07 11:08:25;;;;;;;39.65;28.30;;;25.70;99.90;;;;;;5062346;28;20045;-64
2023/10/07 11:10:55;;;;;;;37.70;29.75;;;25.80;99.90;;;;;;5059003;28;20076;-64
2023/10/07 11:13:23;;;;;;;37.17;26.45;;;25.70;99.90;;;;;;5056681;28;20077;-65
2023/10/07 11:16:09;;;;;;;38.25;27.13;;;25.70;99.90;;;;;;5056332;28;20045;-65
2023/10/07 11:18:41;;;;;;;36.17;28.23;;;26.10;99.90;;;;;;5058975;28;20059;-65
2023/10/07 11:21:18;;;;;;;34.05;27.48;;;25.90;99.90;;;;;;5063375;28;20120;-64
2023/10/07 11:23:49;;;;;;;36.70;27.88;;;25.90;99.90;;;;;;5068072;28;20040;-65
2023/10/07 11:26:19;;;;;;;37.45;28.27;;;25.60;99.90;;;;;;5047098;28;20076;-65
2023/10/07 11:28:48;;;;;;;40.10;27.48;;;26.00;99.90;;;;;;5056387;28;20718;-64
2023/10/07 11:31:20;;;;;;;33.15;26.20;;;26.10;99.90;;;;;;5057868;28;20055;-64
2023/10/07 11:33:50;;;;;;;32.45;26.90;;;25.80;99.90;;;;;;5057148;28;20044;-63
2023/10/07 11:36:16;;;;;;;40.92;29.08;;;25.90;99.90;;;;;;5054439;28;20072;-64
2023/10/07 11:38:42;;;;;;;34.88;27.58;;;26.00;99.90;;;;;;5055717;28;20049;-65
2023/10/07 11:41:10;;;;;;;40.25;28.80;;;26.10;99.90;;;;;;5056539;28;20494;-64
2023/10/07 11:43:48;;;;;;;38.95;28.48;;;25.80;99.90;;;;;;5060504;28;20597;-65
2023/10/07 11:46:15;;;;;;;33.67;27.85;;;25.80;99.90;;;;;;5055036;28;20139;-64
2023/10/07 11:48:46;;;;;;;40.35;28.60;;;25.70;99.90;;;;;;5054103;28;20077;-64
2023/10/07 11:51:12;;;;;;;39.08;29.55;;;25.90;99.90;;;;;;5056133;28;20044;-65
2023/10/07 11:53:40;;;;;;;35.40;27.75;;;25.70;99.90;;;;;;5056563;28;20075;-65
2023/10/07 11:56:11;;;;;;;35.42;27.40;;;25.70;99.90;;;;;;5062435;28;20048;-64
2023/10/07 11:58:41;;;;;;;36.45;27.08;;;25.90;99.90;;;;;;5059538;28;20047;-65
2023/10/07 12:01:07;;;;;;;37.35;28.08;;;25.90;99.90;;;;;;5056062;28;20736;-64
2023/10/07 12:03:34;;;;;;;34.50;27.23;;;25.80;99.90;;;;;;5063161;28;20129;-64
2023/10/07 12:06:00;;;;;;;39.28;29.80;;;25.70;99.90;;;;;;5059566;28;20090;-66
2023/10/07 12:08:26;;;;;;;34.95;28.40;;;25.50;99.90;;;;;;5063128;28;20036;-64
2023/10/07 12:10:52;;;;;;;37.65;29.00;;;25.50;99.90;;;;;;5052250;28;20040;-64
2023/10/07 12:13:19;;;;;;;40.90;28.80;;;25.90;99.90;;;;;;5056444;28;20041;-71
2023/10/07 12:15:45;;;;;;;36.72;28.42;;;25.80;99.90;;;;;;5053782;28;20041;-65
2023/10/07 12:18:12;;;;;;;35.00;27.73;;;25.70;99.90;;;;;;5062882;28;20037;-65
2023/10/07 12:20:39;;;;;;;40.25;28.50;;;25.60;99.90;;;;;;5059368;28;20041;-65
2023/10/07 12:23:05;;;;;;;35.10;27.00;;;25.80;99.90;;;;;;5062204;28;20052;-65
2023/10/07 12:25:31;;;;;;;36.40;25.70;;;26.10;99.90;;;;;;5066156;28;20051;-64
2023/10/07 12:27:56;;;;;;;35.95;28.30;;;25.90;99.90;;;;;;5065872;28;20143;-64
2023/10/07 12:30:22;;;;;;;36.00;28.67;;;25.60;99.90;;;;;;5067272;28;20707;-64
2023/10/07 12:32:52;;;;;;;30.67;25.58;;;25.90;99.90;;;;;;5056040;28;20045;-65
2023/10/07 12:35:19;;;;;;;34.67;26.48;;;26.00;99.90;;;;;;5057731;28;20085;-64
2023/10/07 12:37:48;;;;;;;32.03;26.00;;;25.50;99.90;;;;;;5066819;28;20089;-64
2023/10/07 12:40:16;;;;;;;42.47;28.52;;;25.50;99.90;;;;;;5056834;28;20048;-65
2023/10/07 12:42:43;;;;;;;37.28;28.92;;;25.60;99.90;;;;;;5060066;28;20039;-65
2023/10/07 12:45:10;;;;;;;42.83;30.35;;;25.70;99.90;;;;;;5051696;28;20049;-65
2023/10/07 12:47:39;;;;;;;39.47;29.48;;;25.50;99.90;;;;;;5063795;28;20123;-64
2023/10/07 12:50:28;;;;;;;43.25;30.50;;;25.60;99.90;;;;;;5051010;28;20044;-64
2023/10/07 12:52:59;;;;;;;38.72;29.45;;;25.30;99.90;;;;;;5053161;28;20491;-64
2023/10/07 12:55:32;;;;;;;43.70;30.08;;;25.60;99.90;;;;;;5058667;28;20040;-64
2023/10/07 12:58:05;;;;;;;42.83;31.05;;;25.30;99.90;;;;;;5055519;28;20048;-64
2023/10/07 13:00:33;;;;;;;42.10;29.38;;;25.40;99.90;;;;;;5047933;28;20051;-64
2023/10/07 13:03:02;;;;;;;46.35;30.60;;;25.30;99.90;;;;;;5052309;28;20485;-67
2023/10/07 13:05:32;;;;;;;43.03;30.63;;;25.20;99.90;;;;;;5054913;28;20044;-66
2023/10/07 13:07:59;;;;;;;40.78;30.80;;;25.50;99.90;;;;;;5053563;28;20064;-67
2023/10/07 13:10:26;;;;;;;46.88;32.35;;;25.30;99.90;;;;;;5047328;28;20121;-66
2023/10/07 13:12:55;;;;;;;38.60;30.25;;;25.40;99.90;;;;;;5062160;28;20048;-67
2023/10/07 13:15:30;;;;;;;40.85;31.00;;;25.40;99.90;;;;;;5060554;28;20037;-66
2023/10/07 13:18:01;;;;;;;39.90;31.63;;;25.10;99.90;;;;;;5052586;28;20503;-66
2023/10/07 13:20:27;;;;;;;44.70;31.75;;;25.00;99.90;;;;;;5061224;28;20047;-66
2023/10/07 13:22:55;;;;;;;41.42;30.98;;;25.20;99.90;;;;;;5053023;28;20472;-66
2023/10/07 13:25:21;;;;;;;39.67;30.77;;;25.00;99.90;;;;;;5048123;28;20041;-66